sensor_id;sensor_type;location;lat;lon;timestamp;P1;durP1;ratioP1;P2;durP2;ratioP2
13421;SDS011;6782;55.904;13.396;2022-08-05T00:01:40;6.68;;;5.80;;
13421;SDS011;6782;55.904;13.396;2022-08-05T00:04:27;6.15;;;5.68;;
13421;SDS011;6782;55.904;13.396;2022-08-05T00:07:15;6.78;;;5.22;;
13421;SDS011;6782;55.904;13.396;2022-08-05T00:10:02;5.35;;;4.85;;
13421;SDS011;6782;55.904;13.396;2022-08-05T00:12:50;5.03;;;4.68;;
13421;SDS011;6782;55.904;13.396;2022-08-05T00:15:37;5.25;;;4.78;;
13421;SDS011;6782;55.904;13.396;2022-08-05T00:18:24;5.45;;;5.03;;
13421;SDS011;6782;55.904;13.396;2022-08-05T00:21:11;5.60;;;5.15;;
13421;SDS011;6782;55.904;13.396;2022-08-05T00:24:00;4.90;;;4.57;;
13421;SDS011;6782;55.904;13.396;2022-08-05T00:26:47;5.18;;;4.88;;
13421;SDS011;6782;55.904;13.396;2022-08-05T00:29:34;9.20;;;6.03;;
13421;SDS011;6782;55.904;13.396;2022-08-05T00:32:21;40.28;;;7.07;;
13421;SDS011;6782;55.904;13.396;2022-08-05T00:35:08;7.57;;;6.68;;
13421;SDS011;6782;55.904;13.396;2022-08-05T00:37:55;6.93;;;6.43;;
13421;SDS011;6782;55.904;13.396;2022-08-05T00:40:47;7.38;;;6.78;;
13421;SDS011;6782;55.904;13.396;2022-08-05T00:43:35;4.97;;;4.68;;
13421;SDS011;6782;55.904;13.396;2022-08-05T00:46:22;6.28;;;5.78;;
13421;SDS011;6782;55.904;13.396;2022-08-05T00:49:10;6.75;;;6.22;;
13421;SDS011;6782;55.904;13.396;2022-08-05T00:51:58;6.75;;;6.07;;
13421;SDS011;6782;55.904;13.396;2022-08-05T00:54:45;6.40;;;5.80;;
13421;SDS011;6782;55.904;13.396;2022-08-05T00:57:33;6.40;;;5.68;;
13421;SDS011;6782;55.904;13.396;2022-08-05T01:00:20;6.35;;;5.93;;
13421;SDS011;6782;55.904;13.396;2022-08-05T01:03:08;6.97;;;6.30;;
13421;SDS011;6782;55.904;13.396;2022-08-05T01:05:55;8.25;;;6.10;;
13421;SDS011;6782;55.904;13.396;2022-08-05T01:08:42;7.45;;;6.40;;
13421;SDS011;6782;55.904;13.396;2022-08-05T01:11:31;6.45;;;5.93;;
13421;SDS011;6782;55.904;13.396;2022-08-05T01:14:24;6.82;;;5.85;;
13421;SDS011;6782;55.904;13.396;2022-08-05T01:17:16;6.85;;;6.25;;
13421;SDS011;6782;55.904;13.396;2022-08-05T01:20:12;6.38;;;5.88;;
13421;SDS011;6782;55.904;13.396;2022-08-05T01:23:10;7.47;;;5.78;;
13421;SDS011;6782;55.904;13.396;2022-08-05T01:26:12;7.07;;;5.57;;
13421;SDS011;6782;55.904;13.396;2022-08-05T01:29:23;6.47;;;5.97;;
13421;SDS011;6782;55.904;13.396;2022-08-05T01:32:15;7.30;;;6.55;;
13421;SDS011;6782;55.904;13.396;2022-08-05T01:35:08;8.20;;;6.47;;
13421;SDS011;6782;55.904;13.396;2022-08-05T01:37:59;8.52;;;7.05;;
13421;SDS011;6782;55.904;13.396;2022-08-05T01:40:48;6.97;;;6.28;;
13421;SDS011;6782;55.904;13.396;2022-08-05T01:43:45;7.95;;;7.22;;
13421;SDS011;6782;55.904;13.396;2022-08-05T01:46:35;7.47;;;6.88;;
13421;SDS011;6782;55.904;13.396;2022-08-05T01:49:23;8.25;;;7.47;;
13421;SDS011;6782;55.904;13.396;2022-08-05T01:52:12;8.90;;;8.20;;
13421;SDS011;6782;55.904;13.396;2022-08-05T01:55:01;7.35;;;6.68;;
13421;SDS011;6782;55.904;13.396;2022-08-05T01:57:51;12.88;;;6.93;;
13421;SDS011;6782;55.904;13.396;2022-08-05T02:00:41;18.98;;;7.22;;
13421;SDS011;6782;55.904;13.396;2022-08-05T02:03:33;15.40;;;8.70;;
13421;SDS011;6782;55.904;13.396;2022-08-05T02:06:23;12.57;;;8.73;;
13421;SDS011;6782;55.904;13.396;2022-08-05T02:09:10;14.98;;;9.02;;
13421;SDS011;6782;55.904;13.396;2022-08-05T02:12:00;8.50;;;7.55;;
13421;SDS011;6782;55.904;13.396;2022-08-05T02:14:51;11.45;;;8.15;;
13421;SDS011;6782;55.904;13.396;2022-08-05T02:17:47;9.15;;;8.35;;
13421;SDS011;6782;55.904;13.396;2022-08-05T02:20:41;13.00;;;9.07;;
13421;SDS011;6782;55.904;13.396;2022-08-05T02:23:33;10.25;;;9.18;;
13421;SDS011;6782;55.904;13.396;2022-08-05T02:26:24;16.42;;;10.15;;
13421;SDS011;6782;55.904;13.396;2022-08-05T02:29:20;14.20;;;11.73;;
13421;SDS011;6782;55.904;13.396;2022-08-05T02:32:08;13.55;;;12.25;;
13421;SDS011;6782;55.904;13.396;2022-08-05T02:34:57;15.43;;;13.30;;
13421;SDS011;6782;55.904;13.396;2022-08-05T02:37:47;18.48;;;14.70;;
13421;SDS011;6782;55.904;13.396;2022-08-05T02:40:36;18.08;;;13.40;;
13421;SDS011;6782;55.904;13.396;2022-08-05T02:43:26;15.55;;;12.50;;
13421;SDS011;6782;55.904;13.396;2022-08-05T02:46:13;16.73;;;13.63;;
13421;SDS011;6782;55.904;13.396;2022-08-05T02:49:02;17.20;;;14.70;;
13421;SDS011;6782;55.904;13.396;2022-08-05T02:51:53;20.30;;;14.70;;
13421;SDS011;6782;55.904;13.396;2022-08-05T02:54:42;16.58;;;13.70;;
13421;SDS011;6782;55.904;13.396;2022-08-05T02:57:31;19.85;;;14.50;;
13421;SDS011;6782;55.904;13.396;2022-08-05T03:00:20;15.85;;;13.98;;
13421;SDS011;6782;55.904;13.396;2022-08-05T03:03:07;20.58;;;13.70;;
13421;SDS011;6782;55.904;13.396;2022-08-05T03:05:54;19.42;;;13.30;;
13421;SDS011;6782;55.904;13.396;2022-08-05T03:08:42;20.15;;;13.32;;
13421;SDS011;6782;55.904;13.396;2022-08-05T03:11:31;18.77;;;11.77;;
13421;SDS011;6782;55.904;13.396;2022-08-05T03:14:18;16.77;;;12.82;;
13421;SDS011;6782;55.904;13.396;2022-08-05T03:17:05;13.88;;;11.30;;
13421;SDS011;6782;55.904;13.396;2022-08-05T03:19:52;17.08;;;11.38;;
13421;SDS011;6782;55.904;13.396;2022-08-05T03:22:39;12.63;;;10.40;;
13421;SDS011;6782;55.904;13.396;2022-08-05T03:25:26;15.52;;;11.00;;
13421;SDS011;6782;55.904;13.396;2022-08-05T03:28:15;13.05;;;11.50;;
13421;SDS011;6782;55.904;13.396;2022-08-05T03:31:03;13.40;;;10.52;;
13421;SDS011;6782;55.904;13.396;2022-08-05T03:33:51;12.55;;;10.88;;
13421;SDS011;6782;55.904;13.396;2022-08-05T03:36:38;17.33;;;12.95;;
13421;SDS011;6782;55.904;13.396;2022-08-05T03:39:25;21.80;;;12.77;;
13421;SDS011;6782;55.904;13.396;2022-08-05T03:42:13;22.08;;;12.73;;
13421;SDS011;6782;55.904;13.396;2022-08-05T03:45:01;16.27;;;11.55;;
13421;SDS011;6782;55.904;13.396;2022-08-05T03:47:48;23.67;;;14.25;;
13421;SDS011;6782;55.904;13.396;2022-08-05T03:50:40;24.25;;;13.55;;
13421;SDS011;6782;55.904;13.396;2022-08-05T03:53:31;21.73;;;14.07;;
13421;SDS011;6782;55.904;13.396;2022-08-05T03:56:24;22.52;;;13.90;;
13421;SDS011;6782;55.904;13.396;2022-08-05T03:59:16;22.20;;;14.18;;
13421;SDS011;6782;55.904;13.396;2022-08-05T04:02:08;16.77;;;13.82;;
13421;SDS011;6782;55.904;13.396;2022-08-05T04:04:57;20.00;;;14.95;;
13421;SDS011;6782;55.904;13.396;2022-08-05T04:07:45;18.90;;;14.35;;
13421;SDS011;6782;55.904;13.396;2022-08-05T04:10:33;21.58;;;14.77;;
13421;SDS011;6782;55.904;13.396;2022-08-05T04:13:21;18.17;;;14.32;;
13421;SDS011;6782;55.904;13.396;2022-08-05T04:16:08;23.55;;;15.95;;
13421;SDS011;6782;55.904;13.396;2022-08-05T04:18:59;24.83;;;14.90;;
13421;SDS011;6782;55.904;13.396;2022-08-05T04:21:46;22.90;;;14.40;;
13421;SDS011;6782;55.904;13.396;2022-08-05T04:24:32;23.33;;;13.27;;
13421;SDS011;6782;55.904;13.396;2022-08-05T04:27:20;26.02;;;15.25;;
13421;SDS011;6782;55.904;13.396;2022-08-05T04:30:08;24.30;;;14.70;;
13421;SDS011;6782;55.904;13.396;2022-08-05T04:32:55;24.77;;;13.75;;
13421;SDS011;6782;55.904;13.396;2022-08-05T04:35:44;24.20;;;14.45;;
13421;SDS011;6782;55.904;13.396;2022-08-05T04:38:31;26.45;;;13.48;;
13421;SDS011;6782;55.904;13.396;2022-08-05T04:41:18;25.80;;;13.43;;
13421;SDS011;6782;55.904;13.396;2022-08-05T04:44:05;23.83;;;13.65;;
13421;SDS011;6782;55.904;13.396;2022-08-05T04:46:52;22.02;;;13.05;;
13421;SDS011;6782;55.904;13.396;2022-08-05T04:49:39;22.00;;;13.73;;
13421;SDS011;6782;55.904;13.396;2022-08-05T04:52:27;24.70;;;13.27;;
13421;SDS011;6782;55.904;13.396;2022-08-05T04:55:14;23.90;;;14.38;;
13421;SDS011;6782;55.904;13.396;2022-08-05T04:58:01;25.98;;;14.70;;
13421;SDS011;6782;55.904;13.396;2022-08-05T05:00:54;28.52;;;15.45;;
13421;SDS011;6782;55.904;13.396;2022-08-05T05:03:41;28.33;;;14.43;;
13421;SDS011;6782;55.904;13.396;2022-08-05T05:06:28;25.10;;;14.32;;
13421;SDS011;6782;55.904;13.396;2022-08-05T05:09:16;22.25;;;13.02;;
13421;SDS011;6782;55.904;13.396;2022-08-05T05:12:04;24.38;;;14.52;;
13421;SDS011;6782;55.904;13.396;2022-08-05T05:14:51;25.73;;;15.45;;
13421;SDS011;6782;55.904;13.396;2022-08-05T05:17:38;24.77;;;15.38;;
13421;SDS011;6782;55.904;13.396;2022-08-05T05:20:25;28.85;;;15.82;;
13421;SDS011;6782;55.904;13.396;2022-08-05T05:23:12;25.63;;;15.40;;
13421;SDS011;6782;55.904;13.396;2022-08-05T05:26:01;25.73;;;15.23;;
13421;SDS011;6782;55.904;13.396;2022-08-05T05:28:48;26.13;;;14.65;;
13421;SDS011;6782;55.904;13.396;2022-08-05T05:31:37;23.75;;;14.00;;
13421;SDS011;6782;55.904;13.396;2022-08-05T05:34:24;20.35;;;13.55;;
13421;SDS011;6782;55.904;13.396;2022-08-05T05:37:11;20.75;;;13.48;;
13421;SDS011;6782;55.904;13.396;2022-08-05T05:39:59;21.90;;;13.45;;
13421;SDS011;6782;55.904;13.396;2022-08-05T05:42:47;19.70;;;12.90;;
13421;SDS011;6782;55.904;13.396;2022-08-05T05:45:35;21.20;;;11.40;;
13421;SDS011;6782;55.904;13.396;2022-08-05T05:48:22;18.80;;;12.43;;
13421;SDS011;6782;55.904;13.396;2022-08-05T05:51:09;15.70;;;11.98;;
13421;SDS011;6782;55.904;13.396;2022-08-05T05:53:56;14.50;;;11.70;;
13421;SDS011;6782;55.904;13.396;2022-08-05T05:56:43;14.18;;;11.43;;
13421;SDS011;6782;55.904;13.396;2022-08-05T05:59:32;15.10;;;12.52;;
13421;SDS011;6782;55.904;13.396;2022-08-05T06:02:19;13.23;;;11.00;;
13421;SDS011;6782;55.904;13.396;2022-08-05T06:05:06;19.13;;;10.85;;
13421;SDS011;6782;55.904;13.396;2022-08-05T06:07:54;14.35;;;10.18;;
13421;SDS011;6782;55.904;13.396;2022-08-05T06:10:42;13.43;;;10.70;;
13421;SDS011;6782;55.904;13.396;2022-08-05T06:13:29;13.35;;;10.82;;
13421;SDS011;6782;55.904;13.396;2022-08-05T06:16:17;15.45;;;10.20;;
13421;SDS011;6782;55.904;13.396;2022-08-05T06:19:04;14.43;;;10.15;;
13421;SDS011;6782;55.904;13.396;2022-08-05T06:21:51;11.07;;;8.48;;
13421;SDS011;6782;55.904;13.396;2022-08-05T06:24:40;10.95;;;8.02;;
13421;SDS011;6782;55.904;13.396;2022-08-05T06:27:28;9.55;;;7.07;;
13421;SDS011;6782;55.904;13.396;2022-08-05T06:30:15;8.27;;;6.07;;
13421;SDS011;6782;55.904;13.396;2022-08-05T06:33:04;11.68;;;7.15;;
13421;SDS011;6782;55.904;13.396;2022-08-05T06:35:51;10.10;;;6.07;;
13421;SDS011;6782;55.904;13.396;2022-08-05T06:38:38;9.15;;;5.65;;
13421;SDS011;6782;55.904;13.396;2022-08-05T06:41:26;7.97;;;5.40;;
13421;SDS011;6782;55.904;13.396;2022-08-05T06:44:13;11.38;;;6.38;;
13421;SDS011;6782;55.904;13.396;2022-08-05T06:47:00;8.10;;;5.22;;
13421;SDS011;6782;55.904;13.396;2022-08-05T06:49:48;5.28;;;4.40;;
13421;SDS011;6782;55.904;13.396;2022-08-05T06:52:35;8.13;;;4.53;;
13421;SDS011;6782;55.904;13.396;2022-08-05T06:55:22;5.47;;;3.85;;
13421;SDS011;6782;55.904;13.396;2022-08-05T06:58:10;6.18;;;4.60;;
13421;SDS011;6782;55.904;13.396;2022-08-05T07:00:57;6.78;;;4.63;;
13421;SDS011;6782;55.904;13.396;2022-08-05T07:03:44;6.18;;;4.40;;
13421;SDS011;6782;55.904;13.396;2022-08-05T07:06:33;8.43;;;5.03;;
13421;SDS011;6782;55.904;13.396;2022-08-05T07:09:20;5.57;;;4.60;;
13421;SDS011;6782;55.904;13.396;2022-08-05T07:12:07;5.30;;;4.72;;
13421;SDS011;6782;55.904;13.396;2022-08-05T07:15:14;6.93;;;5.40;;
13421;SDS011;6782;55.904;13.396;2022-08-05T07:18:18;7.30;;;5.57;;
13421;SDS011;6782;55.904;13.396;2022-08-05T07:21:05;7.78;;;6.03;;
13421;SDS011;6782;55.904;13.396;2022-08-05T07:23:54;7.28;;;6.38;;
13421;SDS011;6782;55.904;13.396;2022-08-05T07:26:42;7.10;;;6.15;;
13421;SDS011;6782;55.904;13.396;2022-08-05T07:29:29;6.90;;;6.20;;
13421;SDS011;6782;55.904;13.396;2022-08-05T07:32:16;8.95;;;6.05;;
13421;SDS011;6782;55.904;13.396;2022-08-05T07:35:05;6.60;;;6.00;;
13421;SDS011;6782;55.904;13.396;2022-08-05T07:37:53;5.80;;;5.28;;
13421;SDS011;6782;55.904;13.396;2022-08-05T07:40:41;5.28;;;4.78;;
13421;SDS011;6782;55.904;13.396;2022-08-05T07:43:29;5.15;;;4.75;;
13421;SDS011;6782;55.904;13.396;2022-08-05T07:46:16;6.25;;;4.38;;
13421;SDS011;6782;55.904;13.396;2022-08-05T07:49:03;4.15;;;3.80;;
13421;SDS011;6782;55.904;13.396;2022-08-05T07:51:50;5.07;;;4.47;;
13421;SDS011;6782;55.904;13.396;2022-08-05T07:54:37;5.70;;;4.18;;
13421;SDS011;6782;55.904;13.396;2022-08-05T07:57:26;6.03;;;4.43;;
13421;SDS011;6782;55.904;13.396;2022-08-05T08:00:13;5.43;;;3.70;;
13421;SDS011;6782;55.904;13.396;2022-08-05T08:02:52;5.05;;;4.50;;
13421;SDS011;6782;55.904;13.396;2022-08-05T08:05:37;5.20;;;4.15;;
13421;SDS011;6782;55.904;13.396;2022-08-05T08:08:22;6.55;;;4.25;;
13421;SDS011;6782;55.904;13.396;2022-08-05T08:11:10;4.93;;;3.70;;
13421;SDS011;6782;55.904;13.396;2022-08-05T08:13:58;4.80;;;3.83;;
13421;SDS011;6782;55.904;13.396;2022-08-05T08:16:45;4.15;;;3.72;;
13421;SDS011;6782;55.904;13.396;2022-08-05T08:19:32;4.45;;;3.63;;
13421;SDS011;6782;55.904;13.396;2022-08-05T08:22:23;3.90;;;3.25;;
13421;SDS011;6782;55.904;13.396;2022-08-05T08:25:11;3.42;;;2.95;;
13421;SDS011;6782;55.904;13.396;2022-08-05T08:27:58;5.93;;;3.25;;
13421;SDS011;6782;55.904;13.396;2022-08-05T08:30:47;4.00;;;3.28;;
13421;SDS011;6782;55.904;13.396;2022-08-05T08:33:34;3.83;;;3.08;;
13421;SDS011;6782;55.904;13.396;2022-08-05T08:36:21;3.70;;;2.70;;
13421;SDS011;6782;55.904;13.396;2022-08-05T08:39:08;4.70;;;2.67;;
13421;SDS011;6782;55.904;13.396;2022-08-05T08:41:55;3.15;;;2.40;;
13421;SDS011;6782;55.904;13.396;2022-08-05T08:44:45;3.20;;;2.83;;
13421;SDS011;6782;55.904;13.396;2022-08-05T08:47:33;3.92;;;2.92;;
13421;SDS011;6782;55.904;13.396;2022-08-05T08:50:21;3.55;;;2.63;;
13421;SDS011;6782;55.904;13.396;2022-08-05T08:53:09;3.75;;;3.05;;
13421;SDS011;6782;55.904;13.396;2022-08-05T08:56:00;3.33;;;2.72;;
13421;SDS011;6782;55.904;13.396;2022-08-05T08:58:48;4.10;;;3.05;;
13421;SDS011;6782;55.904;13.396;2022-08-05T09:01:35;4.13;;;3.10;;
13421;SDS011;6782;55.904;13.396;2022-08-05T09:04:24;6.30;;;3.25;;
13421;SDS011;6782;55.904;13.396;2022-08-05T09:07:11;3.58;;;3.22;;
13421;SDS011;6782;55.904;13.396;2022-08-05T09:09:59;2.90;;;2.70;;
13421;SDS011;6782;55.904;13.396;2022-08-05T09:12:46;4.38;;;3.30;;
13421;SDS011;6782;55.904;13.396;2022-08-05T09:15:33;4.30;;;3.10;;
13421;SDS011;6782;55.904;13.396;2022-08-05T09:18:20;3.10;;;2.80;;
13421;SDS011;6782;55.904;13.396;2022-08-05T09:21:10;3.30;;;2.95;;
13421;SDS011;6782;55.904;13.396;2022-08-05T09:24:03;4.07;;;3.58;;
13421;SDS011;6782;55.904;13.396;2022-08-05T09:26:54;3.47;;;2.80;;
13421;SDS011;6782;55.904;13.396;2022-08-05T09:29:42;3.60;;;3.00;;
13421;SDS011;6782;55.904;13.396;2022-08-05T09:32:36;4.35;;;2.60;;
13421;SDS011;6782;55.904;13.396;2022-08-05T09:35:24;3.13;;;2.83;;
13421;SDS011;6782;55.904;13.396;2022-08-05T09:38:13;2.63;;;2.42;;
13421;SDS011;6782;55.904;13.396;2022-08-05T09:41:05;3.88;;;2.28;;
13421;SDS011;6782;55.904;13.396;2022-08-05T09:43:54;2.90;;;1.85;;
13421;SDS011;6782;55.904;13.396;2022-08-05T09:46:41;3.33;;;2.22;;
13421;SDS011;6782;55.904;13.396;2022-08-05T09:49:28;2.55;;;1.80;;
13421;SDS011;6782;55.904;13.396;2022-08-05T09:52:19;3.25;;;1.95;;
13421;SDS011;6782;55.904;13.396;2022-08-05T09:55:10;4.20;;;2.15;;
13421;SDS011;6782;55.904;13.396;2022-08-05T09:57:58;2.17;;;1.70;;
13421;SDS011;6782;55.904;13.396;2022-08-05T10:00:52;3.55;;;1.50;;
13421;SDS011;6782;55.904;13.396;2022-08-05T10:03:53;3.22;;;1.92;;
13421;SDS011;6782;55.904;13.396;2022-08-05T10:06:52;2.55;;;1.83;;
13421;SDS011;6782;55.904;13.396;2022-08-05T10:09:40;3.58;;;2.17;;
13421;SDS011;6782;55.904;13.396;2022-08-05T10:12:46;2.70;;;2.00;;
13421;SDS011;6782;55.904;13.396;2022-08-05T10:15:35;2.25;;;1.75;;
13421;SDS011;6782;55.904;13.396;2022-08-05T10:18:23;4.10;;;2.05;;
13421;SDS011;6782;55.904;13.396;2022-08-05T10:21:11;4.55;;;1.60;;
13421;SDS011;6782;55.904;13.396;2022-08-05T10:23:58;2.55;;;1.75;;
13421;SDS011;6782;55.904;13.396;2022-08-05T10:26:47;3.92;;;2.00;;
13421;SDS011;6782;55.904;13.396;2022-08-05T10:29:37;6.75;;;2.00;;
13421;SDS011;6782;55.904;13.396;2022-08-05T10:32:25;3.97;;;3.45;;
13421;SDS011;6782;55.904;13.396;2022-08-05T10:35:12;3.95;;;1.52;;
13421;SDS011;6782;55.904;13.396;2022-08-05T10:37:59;3.47;;;1.67;;
13421;SDS011;6782;55.904;13.396;2022-08-05T10:40:51;4.85;;;1.58;;
13421;SDS011;6782;55.904;13.396;2022-08-05T10:43:46;2.50;;;1.80;;
13421;SDS011;6782;55.904;13.396;2022-08-05T10:46:45;5.28;;;1.73;;
13421;SDS011;6782;55.904;13.396;2022-08-05T10:49:34;2.50;;;1.33;;
13421;SDS011;6782;55.904;13.396;2022-08-05T10:52:36;4.35;;;1.70;;
13421;SDS011;6782;55.904;13.396;2022-08-05T10:55:25;6.53;;;1.67;;
13421;SDS011;6782;55.904;13.396;2022-08-05T10:58:14;2.42;;;1.70;;
13421;SDS011;6782;55.904;13.396;2022-08-05T11:01:03;2.47;;;1.65;;
13421;SDS011;6782;55.904;13.396;2022-08-05T11:04:03;3.17;;;1.30;;
13421;SDS011;6782;55.904;13.396;2022-08-05T11:07:02;3.92;;;1.55;;
13421;SDS011;6782;55.904;13.396;2022-08-05T11:09:51;2.13;;;1.50;;
13421;SDS011;6782;55.904;13.396;2022-08-05T11:12:42;3.30;;;1.40;;
13421;SDS011;6782;55.904;13.396;2022-08-05T11:15:31;4.75;;;1.73;;
13421;SDS011;6782;55.904;13.396;2022-08-05T11:18:25;3.35;;;1.40;;
13421;SDS011;6782;55.904;13.396;2022-08-05T11:24:19;3.30;;;1.20;;
13421;SDS011;6782;55.904;13.396;2022-08-05T11:30:17;3.05;;;1.60;;
13421;SDS011;6782;55.904;13.396;2022-08-05T11:36:13;2.60;;;1.05;;
13421;SDS011;6782;55.904;13.396;2022-08-05T11:39:04;2.58;;;1.17;;
13421;SDS011;6782;55.904;13.396;2022-08-05T11:41:52;3.47;;;1.25;;
13421;SDS011;6782;55.904;13.396;2022-08-05T11:44:39;2.67;;;1.13;;
13421;SDS011;6782;55.904;13.396;2022-08-05T11:47:26;2.30;;;1.00;;
13421;SDS011;6782;55.904;13.396;2022-08-05T11:50:14;3.83;;;1.30;;
13421;SDS011;6782;55.904;13.396;2022-08-05T11:53:02;3.70;;;1.30;;
13421;SDS011;6782;55.904;13.396;2022-08-05T11:55:55;2.42;;;1.15;;
13421;SDS011;6782;55.904;13.396;2022-08-05T11:58:44;2.17;;;1.10;;
13421;SDS011;6782;55.904;13.396;2022-08-05T12:01:31;2.67;;;1.50;;
13421;SDS011;6782;55.904;13.396;2022-08-05T12:04:18;2.60;;;1.50;;
13421;SDS011;6782;55.904;13.396;2022-08-05T12:07:05;5.00;;;1.42;;
13421;SDS011;6782;55.904;13.396;2022-08-05T12:09:53;4.75;;;1.45;;
13421;SDS011;6782;55.904;13.396;2022-08-05T12:12:47;3.13;;;1.30;;
13421;SDS011;6782;55.904;13.396;2022-08-05T12:15:34;3.45;;;1.33;;
13421;SDS011;6782;55.904;13.396;2022-08-05T12:18:26;3.13;;;1.55;;
13421;SDS011;6782;55.904;13.396;2022-08-05T12:21:14;1.77;;;1.17;;
13421;SDS011;6782;55.904;13.396;2022-08-05T12:24:06;2.92;;;1.40;;
13421;SDS011;6782;55.904;13.396;2022-08-05T12:26:54;3.22;;;1.65;;
13421;SDS011;6782;55.904;13.396;2022-08-05T12:29:43;4.28;;;1.60;;
13421;SDS011;6782;55.904;13.396;2022-08-05T12:32:30;3.17;;;1.10;;
13421;SDS011;6782;55.904;13.396;2022-08-05T12:35:18;4.22;;;1.50;;
13421;SDS011;6782;55.904;13.396;2022-08-05T12:38:08;3.20;;;1.20;;
13421;SDS011;6782;55.904;13.396;2022-08-05T12:40:55;3.00;;;1.30;;
13421;SDS011;6782;55.904;13.396;2022-08-05T12:43:52;3.20;;;1.50;;
13421;SDS011;6782;55.904;13.396;2022-08-05T12:46:43;3.50;;;1.10;;
13421;SDS011;6782;55.904;13.396;2022-08-05T12:49:41;1.75;;;1.10;;
13421;SDS011;6782;55.904;13.396;2022-08-05T12:52:30;3.05;;;1.30;;
13421;SDS011;6782;55.904;13.396;2022-08-05T12:55:18;1.30;;;1.15;;
13421;SDS011;6782;55.904;13.396;2022-08-05T12:58:06;3.08;;;1.20;;
13421;SDS011;6782;55.904;13.396;2022-08-05T13:00:53;2.45;;;1.20;;
13421;SDS011;6782;55.904;13.396;2022-08-05T13:03:42;2.95;;;1.50;;
13421;SDS011;6782;55.904;13.396;2022-08-05T13:06:32;4.25;;;1.55;;
13421;SDS011;6782;55.904;13.396;2022-08-05T13:09:22;3.35;;;1.50;;
13421;SDS011;6782;55.904;13.396;2022-08-05T13:12:10;3.38;;;1.90;;
13421;SDS011;6782;55.904;13.396;2022-08-05T13:14:58;4.05;;;1.63;;
13421;SDS011;6782;55.904;13.396;2022-08-05T13:17:52;3.60;;;1.75;;
13421;SDS011;6782;55.904;13.396;2022-08-05T13:20:41;5.55;;;1.90;;
13421;SDS011;6782;55.904;13.396;2022-08-05T13:23:29;3.70;;;1.88;;
13421;SDS011;6782;55.904;13.396;2022-08-05T13:26:16;4.93;;;1.90;;
13421;SDS011;6782;55.904;13.396;2022-08-05T13:29:03;5.82;;;2.13;;
13421;SDS011;6782;55.904;13.396;2022-08-05T13:31:51;4.05;;;2.10;;
13421;SDS011;6782;55.904;13.396;2022-08-05T13:34:38;4.18;;;2.10;;
13421;SDS011;6782;55.904;13.396;2022-08-05T13:37:26;4.72;;;2.17;;
13421;SDS011;6782;55.904;13.396;2022-08-05T13:40:13;2.53;;;1.88;;
13421;SDS011;6782;55.904;13.396;2022-08-05T13:43:03;3.65;;;1.67;;
13421;SDS011;6782;55.904;13.396;2022-08-05T13:45:50;2.95;;;1.67;;
13421;SDS011;6782;55.904;13.396;2022-08-05T13:48:37;4.93;;;1.80;;
13421;SDS011;6782;55.904;13.396;2022-08-05T13:51:25;4.47;;;1.75;;
13421;SDS011;6782;55.904;13.396;2022-08-05T13:54:16;5.38;;;1.98;;
13421;SDS011;6782;55.904;13.396;2022-08-05T13:57:05;6.38;;;1.95;;
13421;SDS011;6782;55.904;13.396;2022-08-05T13:59:52;3.20;;;1.50;;
13421;SDS011;6782;55.904;13.396;2022-08-05T14:02:39;4.07;;;1.75;;
13421;SDS011;6782;55.904;13.396;2022-08-05T14:05:26;4.57;;;1.77;;
13421;SDS011;6782;55.904;13.396;2022-08-05T14:08:15;4.47;;;1.70;;
13421;SDS011;6782;55.904;13.396;2022-08-05T14:11:04;5.07;;;1.98;;
13421;SDS011;6782;55.904;13.396;2022-08-05T14:13:51;5.70;;;2.00;;
13421;SDS011;6782;55.904;13.396;2022-08-05T14:16:38;4.15;;;1.77;;
13421;SDS011;6782;55.904;13.396;2022-08-05T14:19:25;4.47;;;2.20;;
13421;SDS011;6782;55.904;13.396;2022-08-05T14:22:12;3.63;;;2.00;;
13421;SDS011;6782;55.904;13.396;2022-08-05T14:25:01;4.65;;;1.80;;
13421;SDS011;6782;55.904;13.396;2022-08-05T14:27:54;7.13;;;1.92;;
13421;SDS011;6782;55.904;13.396;2022-08-05T14:30:42;4.82;;;1.60;;
13421;SDS011;6782;55.904;13.396;2022-08-05T14:33:29;3.13;;;1.80;;
13421;SDS011;6782;55.904;13.396;2022-08-05T14:36:17;5.93;;;1.80;;
13421;SDS011;6782;55.904;13.396;2022-08-05T14:39:04;3.25;;;1.50;;
13421;SDS011;6782;55.904;13.396;2022-08-05T14:41:51;3.67;;;1.48;;
13421;SDS011;6782;55.904;13.396;2022-08-05T14:44:41;2.15;;;1.52;;
13421;SDS011;6782;55.904;13.396;2022-08-05T14:47:30;3.88;;;1.42;;
13421;SDS011;6782;55.904;13.396;2022-08-05T14:50:17;2.38;;;1.70;;
13421;SDS011;6782;55.904;13.396;2022-08-05T14:53:04;1.60;;;1.30;;
13421;SDS011;6782;55.904;13.396;2022-08-05T14:55:53;3.30;;;1.60;;
13421;SDS011;6782;55.904;13.396;2022-08-05T14:58:40;3.70;;;1.50;;
13421;SDS011;6782;55.904;13.396;2022-08-05T15:01:29;3.58;;;1.35;;
13421;SDS011;6782;55.904;13.396;2022-08-05T15:04:16;4.35;;;1.42;;
13421;SDS011;6782;55.904;13.396;2022-08-05T15:07:04;2.72;;;1.15;;
13421;SDS011;6782;55.904;13.396;2022-08-05T15:09:51;4.97;;;1.58;;
13421;SDS011;6782;55.904;13.396;2022-08-05T15:12:39;4.70;;;1.45;;
13421;SDS011;6782;55.904;13.396;2022-08-05T15:15:26;3.25;;;1.58;;
13421;SDS011;6782;55.904;13.396;2022-08-05T15:18:15;2.50;;;1.33;;
13421;SDS011;6782;55.904;13.396;2022-08-05T15:21:08;4.57;;;1.33;;
13421;SDS011;6782;55.904;13.396;2022-08-05T15:23:55;2.45;;;1.50;;
13421;SDS011;6782;55.904;13.396;2022-08-05T15:26:41;3.67;;;1.65;;
13421;SDS011;6782;55.904;13.396;2022-08-05T15:29:29;2.30;;;1.48;;
13421;SDS011;6782;55.904;13.396;2022-08-05T15:32:16;3.60;;;1.83;;
13421;SDS011;6782;55.904;13.396;2022-08-05T15:35:04;5.03;;;1.60;;
13421;SDS011;6782;55.904;13.396;2022-08-05T15:37:52;5.22;;;1.83;;
13421;SDS011;6782;55.904;13.396;2022-08-05T15:40:40;3.90;;;1.60;;
13421;SDS011;6782;55.904;13.396;2022-08-05T15:43:27;4.20;;;1.52;;
13421;SDS011;6782;55.904;13.396;2022-08-05T15:46:14;2.78;;;1.40;;
13421;SDS011;6782;55.904;13.396;2022-08-05T15:49:00;2.80;;;1.65;;
13421;SDS011;6782;55.904;13.396;2022-08-05T15:51:49;1.52;;;1.17;;
13421;SDS011;6782;55.904;13.396;2022-08-05T15:54:36;4.85;;;1.48;;
13421;SDS011;6782;55.904;13.396;2022-08-05T15:57:23;2.05;;;1.30;;
13421;SDS011;6782;55.904;13.396;2022-08-05T16:00:11;4.28;;;1.30;;
13421;SDS011;6782;55.904;13.396;2022-08-05T16:02:59;2.20;;;1.20;;
13421;SDS011;6782;55.904;13.396;2022-08-05T16:05:45;3.25;;;1.20;;
13421;SDS011;6782;55.904;13.396;2022-08-05T16:08:36;2.70;;;1.55;;
13421;SDS011;6782;55.904;13.396;2022-08-05T16:11:23;2.67;;;1.40;;
13421;SDS011;6782;55.904;13.396;2022-08-05T16:14:10;2.53;;;1.35;;
13421;SDS011;6782;55.904;13.396;2022-08-05T16:17:00;1.60;;;1.45;;
13421;SDS011;6782;55.904;13.396;2022-08-05T16:20:09;2.25;;;1.40;;
13421;SDS011;6782;55.904;13.396;2022-08-05T16:22:56;1.23;;;1.10;;
13421;SDS011;6782;55.904;13.396;2022-08-05T16:25:45;2.63;;;1.50;;
13421;SDS011;6782;55.904;13.396;2022-08-05T16:28:32;1.45;;;1.13;;
13421;SDS011;6782;55.904;13.396;2022-08-05T16:31:20;2.05;;;1.50;;
13421;SDS011;6782;55.904;13.396;2022-08-05T16:34:07;2.60;;;1.30;;
13421;SDS011;6782;55.904;13.396;2022-08-05T16:36:54;3.17;;;1.40;;
13421;SDS011;6782;55.904;13.396;2022-08-05T16:39:41;2.55;;;1.23;;
13421;SDS011;6782;55.904;13.396;2022-08-05T16:42:31;2.03;;;1.05;;
13421;SDS011;6782;55.904;13.396;2022-08-05T16:45:18;1.48;;;1.25;;
13421;SDS011;6782;55.904;13.396;2022-08-05T16:48:05;1.20;;;1.10;;
13421;SDS011;6782;55.904;13.396;2022-08-05T16:50:52;1.15;;;0.90;;
13421;SDS011;6782;55.904;13.396;2022-08-05T16:53:39;1.10;;;1.00;;
13421;SDS011;6782;55.904;13.396;2022-08-05T16:56:27;1.85;;;0.90;;
13421;SDS011;6782;55.904;13.396;2022-08-05T16:59:19;1.85;;;1.05;;